Time;durP1;ratioP1;P1;durP2;ratioP2;P2;SDS_P1;SDS_P2;PMS_P1;PMS_P2;Temp;Humidity;BMP_temperature;BMP_pressure;BME280_temperature;BME280_humidity;BME280_pressure;Samples;Min_cycle;Max_cycle;Signal;HPM_P1;HPM_P2
2022/01/03 00:00:09;;;;;;;1.58;1.35;;;16.30;68.10;;;;;;5051639;28;20131;-74
2022/01/03 00:02:36;;;;;;;1.45;1.10;;;15.70;61.80;;;;;;5052855;28;20140;-74
2022/01/03 00:05:04;;;;;;;2.55;1.10;;;16.40;63.60;;;;;;5052899;28;20085;-75
2022/01/03 00:07:31;;;;;;;2.85;1.10;;;16.00;67.80;;;;;;5052460;28;20076;-75
2022/01/03 00:09:58;;;;;;;2.00;1.20;;;;;;;;;;5050912;28;20579;-75
2022/01/03 00:12:25;;;;;;;2.78;1.58;;;16.30;68.00;;;;;;5051784;28;20147;-74
2022/01/03 00:14:52;;;;;;;2.67;1.30;;;16.40;68.30;;;;;;5043007;28;20140;-75
2022/01/03 00:17:18;;;;;;;1.80;1.20;;;16.30;67.90;;;;;;5050101;28;20455;-75
2022/01/03 00:19:45;;;;;;;1.73;1.13;;;16.60;68.10;;;;;;5032612;28;20085;-74
2022/01/03 00:22:13;;;;;;;1.95;1.23;;;16.20;61.20;;;;;;5048165;28;20422;-75
2022/01/03 00:24:40;;;;;;;1.40;1.08;;;;;;;;;;5039070;28;20140;-75
2022/01/03 00:27:11;;;;;;;1.88;1.10;;;16.10;68.20;;;;;;5033322;28;20425;-75
2022/01/03 00:29:43;;;;;;;1.95;1.10;;;16.30;61.30;;;;;;5047922;28;20132;-75
2022/01/03 00:32:10;;;;;;;2.00;1.17;;;16.30;68.10;;;;;;5034663;28;20085;-75
2022/01/03 00:34:37;;;;;;;1.88;1.10;;;16.20;63.10;;;;;;5032568;28;20132;-74
2022/01/03 00:37:04;;;;;;;1.98;0.90;;;16.20;68.00;;;;;;5032180;28;20065;-75
2022/01/03 00:39:33;;;;;;;1.35;1.00;;;15.90;68.10;;;;;;5032391;28;20095;-74
2022/01/03 00:41:59;;;;;;;1.58;0.98;;;15.90;67.90;;;;;;5032662;28;20526;-74
2022/01/03 00:44:27;;;;;;;2.60;1.20;;;16.20;68.30;;;;;;5032934;28;20085;-74
2022/01/03 00:46:53;;;;;;;2.05;1.08;;;16.20;68.30;;;;;;5031926;28;20057;-75
2022/01/03 00:49:20;;;;;;;1.55;1.00;;;16.10;68.00;;;;;;5032261;28;20126;-74
2022/01/03 00:51:47;;;;;;;2.17;1.10;;;16.30;64.40;;;;;;5044033;28;20517;-75
2022/01/03 00:54:14;;;;;;;1.15;0.90;;;16.20;68.30;;;;;;5042129;28;20124;-75
2022/01/03 00:56:46;;;;;;;1.13;1.00;;;16.20;68.10;;;;;;5037253;28;20186;-75
2022/01/03 00:59:14;;;;;;;3.28;1.40;;;16.10;68.10;;;;;;5048251;28;20053;-74
2022/01/03 01:01:45;;;;;;;1.50;0.90;;;16.10;61.30;;;;;;5051631;28;20060;-74
2022/01/03 01:04:12;;;;;;;1.42;1.00;;;16.20;68.40;;;;;;5051972;28;20139;-75
2022/01/03 01:06:38;;;;;;;1.75;0.93;;;15.60;67.80;;;;;;5051468;28;20132;-74
2022/01/03 01:09:07;;;;;;;2.53;1.25;;;16.10;61.30;;;;;;5042810;28;20129;-75
2022/01/03 01:11:34;;;;;;;1.17;0.95;;;16.10;64.00;;;;;;5031208;28;20045;-75
2022/01/03 01:14:02;;;;;;;2.20;1.00;;;16.30;68.50;;;;;;5031768;28;20443;-75
2022/01/03 01:16:29;;;;;;;1.55;0.98;;;16.10;68.20;;;;;;5032381;28;20053;-75
2022/01/03 01:18:56;;;;;;;2.58;1.08;;;16.10;66.10;;;;;;5031213;28;20137;-75
2022/01/03 01:21:23;;;;;;;1.88;0.98;;;16.10;68.50;;;;;;5031549;28;20136;-74
2022/01/03 01:23:51;;;;;;;1.63;1.00;;;15.90;68.00;;;;;;5050792;28;20049;-74
2022/01/03 01:29:05;;;;;;;1.67;1.00;;;16.00;61.30;;;;;;5031607;28;20049;-75
2022/01/03 01:31:33;;;;;;;1.67;1.00;;;16.00;61.30;;;;;;5031259;28;20550;-75
2022/01/03 01:34:00;;;;;;;2.03;0.98;;;16.00;65.00;;;;;;5032166;28;20045;-75
2022/01/03 01:36:27;;;;;;;2.65;1.40;;;16.10;68.50;;;;;;5031149;28;20132;-74
2022/01/03 01:38:59;;;;;;;2.33;1.17;;;16.00;63.90;;;;;;5031031;28;20120;-75
2022/01/03 01:41:26;;;;;;;1.85;1.17;;;;;;;;;;5031267;28;20140;-76
2022/01/03 01:43:54;;;;;;;1.80;1.00;;;16.10;68.30;;;;;;5030983;28;20049;-74
2022/01/03 01:46:24;;;;;;;2.55;1.20;;;16.00;67.40;;;;;;5030969;28;20081;-74
2022/01/03 01:48:51;;;;;;;2.35;1.30;;;16.00;68.10;;;;;;5031227;28;20065;-74
2022/01/03 01:51:19;;;;;;;2.10;1.10;;;15.60;68.00;;;;;;5032138;28;20053;-75
2022/01/03 01:53:47;;;;;;;5.00;1.10;;;16.00;61.20;;;;;;5030745;28;20079;-75
2022/01/03 01:56:16;;;;;;;1.85;1.00;;;16.00;68.50;;;;;;5030880;28;20057;-75
2022/01/03 01:58:56;;;;;;;2.55;1.30;;;16.10;67.20;;;;;;5030860;28;20077;-75
2022/01/03 02:01:24;;;;;;;2.65;1.13;;;16.10;67.90;;;;;;5030886;28;20085;-75
2022/01/03 02:03:57;;;;;;;2.67;1.30;;;16.10;68.40;;;;;;5030268;28;20132;-75
2022/01/03 02:06:27;;;;;;;3.22;1.50;;;15.70;68.30;;;;;;5030741;28;20052;-74
2022/01/03 02:09:03;;;;;;;2.33;1.20;;;16.10;68.20;;;;;;5032041;28;20399;-74
2022/01/03 02:11:38;;;;;;;2.53;1.40;;;15.50;67.90;;;;;;5037206;28;20122;-75
2022/01/03 02:14:05;;;;;;;2.50;1.00;;;;;;;;;;5041742;28;20503;-75
2022/01/03 02:16:33;;;;;;;3.70;1.20;;;16.10;68.20;;;;;;5030576;28;20137;-74
2022/01/03 02:19:00;;;;;;;2.58;1.10;;;16.00;68.10;;;;;;5030327;28;20057;-74
2022/01/03 02:21:28;;;;;;;2.35;1.13;;;16.00;61.10;;;;;;5031743;28;20142;-75
2022/01/03 02:23:55;;;;;;;3.05;1.27;;;;;;;;;;5029952;28;20141;-75
2022/01/03 02:26:22;;;;;;;3.03;1.30;;;15.60;67.80;;;;;;5049003;28;20553;-74
2022/01/03 02:28:50;;;;;;;2.55;1.20;;;15.80;68.20;;;;;;5050644;28;20136;-75
2022/01/03 02:31:17;;;;;;;2.28;1.10;;;15.60;68.10;;;;;;5050516;28;20592;-75
2022/01/03 02:33:44;;;;;;;4.40;1.23;;;15.90;68.20;;;;;;5050106;28;20053;-75
2022/01/03 02:36:11;;;;;;;2.95;1.10;;;16.00;68.30;;;;;;5050182;28;20132;-74
2022/01/03 02:38:39;;;;;;;2.08;1.10;;;15.70;60.90;;;;;;5050166;28;20476;-75
2022/01/03 02:41:06;;;;;;;2.72;1.08;;;16.10;68.10;;;;;;5048899;28;20080;-75
2022/01/03 02:43:33;;;;;;;4.10;1.20;;;15.90;68.10;;;;;;5031266;28;20471;-75
2022/01/03 02:46:00;;;;;;;4.10;1.45;;;;;;;;;;5030291;28;20140;-75
2022/01/03 02:48:27;;;;;;;2.22;1.20;;;16.00;68.10;;;;;;5030507;28;20128;-75
2022/01/03 02:50:54;;;;;;;3.63;1.30;;;15.90;61.00;;;;;;5029844;28;20049;-75
2022/01/03 02:53:21;;;;;;;3.33;1.30;;;15.80;68.30;;;;;;5030570;28;20140;-75
2022/01/03 02:55:49;;;;;;;4.75;1.52;;;16.00;61.10;;;;;;5041495;28;20144;-75
2022/01/03 02:58:16;;;;;;;3.83;1.50;;;;;;;;;;5049452;28;20045;-75
2022/01/03 03:00:47;;;;;;;3.40;1.30;;;15.90;61.00;;;;;;5050265;28;20135;-75
2022/01/03 03:03:14;;;;;;;2.00;1.05;;;16.10;61.10;;;;;;5050230;28;20540;-75
2022/01/03 03:05:41;;;;;;;4.68;1.60;;;16.10;68.00;;;;;;5031874;28;20129;-74
2022/01/03 03:08:08;;;;;;;1.92;1.40;;;;;;;;;;5030135;28;20418;-75
2022/01/03 03:10:35;;;;;;;3.92;1.40;;;16.50;68.50;;;;;;5030209;28;20140;-74
2022/01/03 03:13:03;;;;;;;4.22;1.23;;;15.90;67.90;;;;;;5030283;28;20140;-75
2022/01/03 03:15:30;;;;;;;3.70;1.30;;;;;;;;;;5030933;28;20517;-74
2022/01/03 03:17:57;;;;;;;4.72;1.35;;;16.10;68.00;;;;;;5030084;28;20132;-75
2022/01/03 03:20:25;;;;;;;3.88;1.40;;;16.00;68.30;;;;;;5029938;28;20077;-75
2022/01/03 03:22:52;;;;;;;2.83;1.30;;;15.70;67.80;;;;;;5029951;28;20406;-74
2022/01/03 03:25:20;;;;;;;3.95;1.20;;;16.00;60.90;;;;;;5030106;28;20148;-75
2022/01/03 03:27:49;;;;;;;2.60;1.23;;;15.70;68.00;;;;;;5029658;28;20728;-74
2022/01/03 03:30:18;;;;;;;3.63;1.35;;;16.00;68.00;;;;;;5047059;28;20462;-74
2022/01/03 03:32:45;;;;;;;3.88;1.30;;;16.00;65.10;;;;;;5031003;28;20057;-75
2022/01/03 03:35:12;;;;;;;3.30;1.25;;;16.00;68.10;;;;;;5031679;28;20137;-74
2022/01/03 03:37:39;;;;;;;2.97;1.30;;;;;;;;;;5033268;28;20560;-75
2022/01/03 03:40:07;;;;;;;4.32;1.60;;;15.90;67.70;;;;;;5033170;28;20129;-75
2022/01/03 03:42:34;;;;;;;4.10;1.42;;;16.40;68.00;;;;;;5033401;28;20140;-74
2022/01/03 03:45:01;;;;;;;4.93;1.50;;;16.20;67.90;;;;;;5033480;28;20141;-75
2022/01/03 03:47:29;;;;;;;4.22;1.50;;;15.80;64.70;;;;;;5032943;28;20053;-75
2022/01/03 03:49:56;;;;;;;5.30;1.45;;;15.60;64.10;;;;;;5033941;28;20435;-75
2022/01/03 03:52:22;;;;;;;8.05;1.58;;;16.80;68.50;;;;;;5033378;28;20224;-75
2022/01/03 03:54:49;;;;;;;4.65;1.40;;;15.40;67.50;;;;;;5033106;28;20132;-75
2022/01/03 03:57:16;;;;;;;2.95;1.40;;;15.80;64.10;;;;;;5032856;28;20469;-75
2022/01/03 03:59:42;;;;;;;4.47;1.50;;;15.80;67.70;;;;;;5032864;28;20129;-75
2022/01/03 04:02:09;;;;;;;2.90;1.23;;;16.00;67.80;;;;;;5033060;28;20144;-74
2022/01/03 04:04:37;;;;;;;2.50;1.23;;;16.10;64.80;;;;;;5034067;28;20045;-75
2022/01/03 04:07:04;;;;;;;5.50;1.50;;;15.90;64.60;;;;;;5033440;28;20145;-75
2022/01/03 04:09:31;;;;;;;4.93;1.73;;;15.80;67.50;;;;;;5033020;28;20447;-75
2022/01/03 04:11:58;;;;;;;4.13;1.38;;;15.80;67.60;;;;;;5032956;28;20132;-75
2022/01/03 04:14:25;;;;;;;4.60;1.88;;;15.30;67.30;;;;;;5032964;28;20574;-75
2022/01/03 04:16:52;;;;;;;3.17;1.20;;;15.60;67.50;;;;;;5032471;28;20588;-76
2022/01/03 04:19:18;;;;;;;3.92;1.33;;;16.00;65.20;;;;;;5032669;28;20128;-75
2022/01/03 04:21:46;;;;;;;2.90;1.42;;;16.70;68.10;;;;;;5032416;28;20107;-75
2022/01/03 04:24:13;;;;;;;6.00;1.80;;;15.80;67.90;;;;;;5033872;28;20057;-74
2022/01/03 04:26:40;;;;;;;5.88;1.70;;;;;;;;;;5032540;28;20126;-76
2022/01/03 04:29:08;;;;;;;4.25;1.50;;;15.90;67.60;;;;;;5032499;28;20108;-74
2022/01/03 04:31:35;;;;;;;4.43;1.50;;;;;;;;;;5032358;28;20140;-75
2022/01/03 04:34:01;;;;;;;4.00;1.50;;;15.90;67.60;;;;;;5032627;28;20475;-74
2022/01/03 04:36:28;;;;;;;4.00;1.40;;;15.70;67.60;;;;;;5032348;28;20092;-75
2022/01/03 04:38:56;;;;;;;4.78;1.70;;;16.10;65.10;;;;;;5031949;28;20119;-75
2022/01/03 04:41:23;;;;;;;4.00;1.30;;;16.00;66.30;;;;;;5050818;28;20139;-74
2022/01/03 04:43:50;;;;;;;4.57;1.30;;;15.90;67.70;;;;;;5052204;28;20140;-74
2022/01/03 04:46:17;;;;;;;3.75;1.58;;;;;;;;;;5051124;28;20059;-75
2022/01/03 04:48:44;;;;;;;3.28;1.42;;;16.00;67.60;;;;;;5052287;28;20107;-76
2022/01/03 04:51:11;;;;;;;3.92;1.50;;;16.00;67.70;;;;;;5052049;28;20056;-76
2022/01/03 04:53:40;;;;;;;5.57;1.63;;;15.90;65.80;;;;;;5052011;28;20494;-75
2022/01/03 04:56:08;;;;;;;5.13;1.58;;;15.60;67.70;;;;;;5050271;28;20575;-75
2022/01/03 04:58:35;;;;;;;3.92;1.48;;;;;;;;;;5037889;28;20057;-75
2022/01/03 05:01:03;;;;;;;4.32;1.50;;;15.70;61.00;;;;;;5051909;28;20140;-75
2022/01/03 05:03:30;;;;;;;5.07;1.42;;;16.00;67.70;;;;;;5051977;28;20468;-75
2022/01/03 05:05:57;;;;;;;4.53;1.70;;;16.10;67.40;;;;;;5051672;28;20135;-76
2022/01/03 05:08:24;;;;;;;3.42;1.45;;;15.50;67.10;;;;;;5051602;28;20049;-75
2022/01/03 05:10:51;;;;;;;4.63;1.30;;;15.60;67.10;;;;;;5051541;28;20136;-76
2022/01/03 05:13:19;;;;;;;3.28;1.55;;;16.00;62.40;;;;;;5051058;28;20135;-76
2022/01/03 05:15:46;;;;;;;4.55;1.83;;;16.10;64.20;;;;;;5050669;28;20132;-75
2022/01/03 05:18:13;;;;;;;4.97;1.50;;;16.20;67.30;;;;;;5051658;28;20550;-75
2022/01/03 05:20:39;;;;;;;4.75;1.67;;;16.10;67.40;;;;;;5051051;28;20136;-76
2022/01/03 05:23:06;;;;;;;5.55;1.80;;;16.10;67.20;;;;;;5051523;28;20504;-75
2022/01/03 05:25:33;;;;;;;3.25;1.30;;;16.10;67.30;;;;;;5050783;28;20075;-76
2022/01/03 05:27:59;;;;;;;4.38;1.50;;;16.20;67.30;;;;;;5051246;28;20059;-76
2022/01/03 05:30:27;;;;;;;3.65;1.50;;;16.00;63.60;;;;;;5038043;28;20538;-76
2022/01/03 05:32:54;;;;;;;2.88;1.35;;;16.10;64.90;;;;;;5031393;28;20057;-75
2022/01/03 05:35:21;;;;;;;4.00;1.50;;;;;;;;;;5031155;28;20049;-74
2022/01/03 05:37:48;;;;;;;3.53;1.63;;;16.00;63.20;;;;;;5031236;28;20505;-75
2022/01/03 05:40:15;;;;;;;3.60;1.45;;;16.00;67.00;;;;;;5030982;28;20057;-76
2022/01/03 05:42:44;;;;;;;4.88;1.60;;;16.30;67.20;;;;;;5031097;28;20148;-76
2022/01/03 05:45:11;;;;;;;4.88;1.42;;;16.30;64.40;;;;;;5046596;28;20053;-76
2022/01/03 05:47:39;;;;;;;3.58;1.30;;;15.60;66.80;;;;;;5050724;28;20131;-76
2022/01/03 05:50:06;;;;;;;3.35;1.70;;;16.20;67.10;;;;;;5050650;28;20413;-75
2022/01/03 05:52:33;;;;;;;3.30;1.40;;;16.20;67.00;;;;;;5050848;28;20135;-76
2022/01/03 05:55:00;;;;;;;4.60;1.67;;;16.30;67.30;;;;;;5051128;28;20052;-76
2022/01/03 05:57:27;;;;;;;4.97;1.52;;;15.70;61.90;;;;;;5050315;28;20135;-75
2022/01/03 05:59:54;;;;;;;5.40;1.70;;;16.10;67.10;;;;;;5031822;28;20550;-76
2022/01/03 06:02:22;;;;;;;3.17;1.50;;;;;;;;;;5031046;28;20140;-75
2022/01/03 06:04:58;;;;;;;4.88;1.65;;;16.20;60.10;;;;;;5030982;28;20084;-74
2022/01/03 06:07:26;;;;;;;4.10;1.73;;;16.40;65.90;;;;;;5030421;28;20057;-76
2022/01/03 06:09:53;;;;;;;5.05;2.00;;;15.90;66.90;;;;;;5030449;28;20144;-76
2022/01/03 06:12:20;;;;;;;4.32;1.50;;;15.50;66.30;;;;;;5032985;28;20132;-75
2022/01/03 06:14:47;;;;;;;3.47;1.35;;;15.40;66.30;;;;;;5050768;28;20067;-76
2022/01/03 06:17:14;;;;;;;3.47;1.45;;;16.40;65.90;;;;;;5050478;28;20140;-75
2022/01/03 06:19:41;;;;;;;4.13;1.67;;;16.30;67.10;;;;;;5050205;28;20155;-76
2022/01/03 06:22:11;;;;;;;4.28;1.50;;;16.20;61.20;;;;;;5050539;28;20140;-75
2022/01/03 06:24:39;;;;;;;4.45;1.55;;;15.70;66.40;;;;;;5050414;28;20448;-76
2022/01/03 06:27:06;;;;;;;4.40;1.73;;;16.00;65.80;;;;;;5046288;28;20132;-75
2022/01/03 06:29:33;;;;;;;4.47;1.60;;;16.10;66.90;;;;;;5030338;28;20133;-74
2022/01/03 06:32:00;;;;;;;4.45;1.60;;;;;;;;;;5030627;28;20089;-74
2022/01/03 06:34:26;;;;;;;4.63;1.80;;;16.20;66.90;;;;;;5030319;28;20065;-74
2022/01/03 06:36:53;;;;;;;4.00;1.58;;;16.10;66.90;;;;;;5030135;28;20469;-75
2022/01/03 06:39:21;;;;;;;5.07;2.00;;;16.40;61.00;;;;;;5030473;28;20136;-75
2022/01/03 06:41:48;;;;;;;4.55;1.67;;;16.40;61.20;;;;;;5036248;28;20045;-75
2022/01/03 06:44:15;;;;;;;3.50;1.60;;;16.20;66.50;;;;;;5049143;28;20084;-74
2022/01/03 06:46:42;;;;;;;4.25;1.63;;;;;;;;;;5044515;28;20060;-74
2022/01/03 06:49:09;;;;;;;3.40;1.67;;;16.40;66.80;;;;;;5030096;28;20141;-74
2022/01/03 06:51:35;;;;;;;5.25;1.75;;;16.20;66.60;;;;;;5044500;28;20492;-74
2022/01/03 06:54:03;;;;;;;5.15;1.70;;;18.20;61.00;;;;;;5033605;28;20483;-74
2022/01/03 06:56:31;;;;;;;4.38;1.60;;;16.30;59.90;;;;;;5037982;28;20140;-74
2022/01/03 06:58:58;;;;;;;4.57;1.77;;;;;;;;;;5050336;28;20077;-74
2022/01/03 07:01:25;;;;;;;3.35;1.45;;;16.30;66.70;;;;;;5050256;28;20139;-75
2022/01/03 07:03:52;;;;;;;6.15;2.28;;;16.40;66.60;;;;;;5049669;28;20147;-74
2022/01/03 07:06:18;;;;;;;6.18;1.90;;;16.10;61.10;;;;;;5049613;28;20132;-74
2022/01/03 07:08:46;;;;;;;4.65;1.65;;;;;;;;;;5049812;28;20140;-75
2022/01/03 07:11:13;;;;;;;4.13;1.40;;;;;;;;;;5052704;28;20144;-74
2022/01/03 07:13:45;;;;;;;4.68;1.50;;;16.20;66.80;;;;;;5040048;28;20546;-74
2022/01/03 07:18:59;;;;;;;6.68;1.77;;;16.30;66.90;;;;;;5044483;28;20139;-74
2022/01/03 07:21:26;;;;;;;4.50;1.60;;;16.30;66.60;;;;;;5052956;28;20103;-74
2022/01/03 07:23:53;;;;;;;3.60;1.58;;;16.30;65.30;;;;;;5053214;28;20052;-74
2022/01/03 07:26:20;;;;;;;4.90;1.60;;;;;;;;;;5053031;28;20132;-73
2022/01/03 07:28:48;;;;;;;4.95;2.00;;;16.90;60.10;;;;;;5053349;28;20156;-74
2022/01/03 07:31:15;;;;;;;4.88;1.80;;;16.30;61.40;;;;;;5053281;28;20469;-74
2022/01/03 07:33:42;;;;;;;4.20;1.48;;;15.90;60.40;;;;;;5053110;28;20148;-73
2022/01/03 07:36:09;;;;;;;6.13;1.83;;;16.50;61.50;;;;;;5045586;28;20437;-75
2022/01/03 07:38:38;;;;;;;5.55;1.90;;;16.40;63.40;;;;;;5033205;28;20050;-75
2022/01/03 07:41:04;;;;;;;4.47;1.70;;;16.40;66.50;;;;;;5033057;28;20056;-75
2022/01/03 07:43:32;;;;;;;5.07;1.80;;;;;;;;;;5033266;28;20099;-75
2022/01/03 07:46:00;;;;;;;6.25;1.70;;;16.40;66.30;;;;;;5038602;28;20132;-75
2022/01/03 07:48:26;;;;;;;5.80;1.88;;;16.60;66.40;;;;;;5049651;28;20136;-75
2022/01/03 07:50:53;;;;;;;5.45;2.20;;;16.60;66.60;;;;;;5043844;28;20124;-76
2022/01/03 07:53:20;;;;;;;5.85;1.98;;;15.70;62.10;;;;;;5052626;28;20127;-75
2022/01/03 07:55:46;;;;;;;5.38;1.70;;;16.40;66.40;;;;;;5052207;28;20141;-75
2022/01/03 07:58:16;;;;;;;6.35;1.73;;;16.70;66.40;;;;;;5052746;28;20128;-75
2022/01/03 08:00:43;;;;;;;4.25;1.75;;;16.70;66.50;;;;;;5052253;28;20399;-75
2022/01/03 08:03:11;;;;;;;5.93;1.80;;;16.50;64.00;;;;;;5053152;28;20139;-75
2022/01/03 08:05:38;;;;;;;5.50;1.80;;;17.40;65.50;;;;;;5051562;28;20143;-76
2022/01/03 08:08:09;;;;;;;6.82;1.70;;;16.80;66.30;;;;;;5040814;28;20152;-75
2022/01/03 08:10:37;;;;;;;4.15;1.98;;;16.50;66.10;;;;;;5040368;28;20823;-75
2022/01/03 08:13:03;;;;;;;5.32;1.85;;;17.50;66.60;;;;;;5035831;28;20513;-74
2022/01/03 08:15:30;;;;;;;3.88;1.70;;;;;;;;;;5050465;28;20051;-74
2022/01/03 08:17:57;;;;;;;9.30;2.40;;;15.90;65.70;;;;;;5044181;28;20132;-75
2022/01/03 08:20:26;;;;;;;11.95;3.03;;;16.70;66.00;;;;;;5041106;28;20079;-75
2022/01/03 08:22:53;;;;;;;10.02;2.90;;;16.20;64.70;;;;;;5049629;28;20041;-75
2022/01/03 08:25:20;;;;;;;16.00;3.28;;;;;;;;;;5051725;28;20088;-75
2022/01/03 08:27:47;;;;;;;17.58;3.95;;;16.50;60.40;;;;;;5050551;28;20136;-75
2022/01/03 08:30:13;;;;;;;19.15;4.13;;;16.20;65.70;;;;;;5049929;28;20124;-75
2022/01/03 08:32:40;;;;;;;10.88;2.95;;;16.70;66.00;;;;;;5051764;28;20717;-75
2022/01/03 08:35:08;;;;;;;15.57;3.53;;;16.90;64.30;;;;;;5052255;28;20557;-75
2022/01/03 08:37:36;;;;;;;11.70;3.05;;;16.80;59.40;;;;;;5032404;28;20084;-75
2022/01/03 08:40:06;;;;;;;17.45;3.53;;;16.00;58.90;;;;;;5046952;28;20464;-75
2022/01/03 08:42:32;;;;;;;13.80;3.75;;;16.70;66.10;;;;;;5045300;28;20702;-75
2022/01/03 08:45:00;;;;;;;11.27;3.08;;;16.20;63.50;;;;;;5050648;28;20049;-75
2022/01/03 08:47:26;;;;;;;12.63;3.30;;;16.80;66.20;;;;;;5047771;28;20125;-75
2022/01/03 08:49:53;;;;;;;12.25;3.15;;;;;;;;;;5043085;28;20069;-75
2022/01/03 08:52:20;;;;;;;10.70;3.28;;;16.40;65.90;;;;;;5045857;28;20132;-75
2022/01/03 08:54:48;;;;;;;16.42;3.50;;;16.30;65.60;;;;;;5051538;28;20176;-75
2022/01/03 08:57:15;;;;;;;11.68;3.20;;;16.90;66.10;;;;;;5049278;28;20077;-75
2022/01/03 08:59:42;;;;;;;11.35;2.90;;;16.80;62.60;;;;;;5049853;28;20494;-75
2022/01/03 09:02:08;;;;;;;9.65;2.95;;;16.90;66.10;;;;;;5051254;28;20045;-75
2022/01/03 09:04:35;;;;;;;8.45;2.83;;;15.90;65.50;;;;;;5051425;28;20617;-75
2022/01/03 09:07:02;;;;;;;9.60;3.30;;;17.40;62.60;;;;;;5051063;28;20482;-75
2022/01/03 09:09:30;;;;;;;9.02;2.60;;;17.10;65.90;;;;;;5043066;28;20080;-75
2022/01/03 09:11:58;;;;;;;11.00;3.03;;;17.20;66.00;;;;;;5050989;28;20044;-75
2022/01/03 09:14:25;;;;;;;9.27;2.88;;;16.90;65.90;;;;;;5049724;28;20124;-75
2022/01/03 09:16:52;;;;;;;7.43;2.88;;;;;;;;;;5048348;28;20529;-75
2022/01/03 09:19:19;;;;;;;7.85;2.63;;;16.90;65.90;;;;;;5045808;28;20468;-75
2022/01/03 09:21:46;;;;;;;9.38;2.50;;;;;;;;;;5031050;28;20053;-74
2022/01/03 09:24:26;;;;;;;8.65;2.65;;;17.10;65.90;;;;;;5031747;28;20057;-75
2022/01/03 09:29:38;;;;;;;8.90;2.50;;;17.00;65.90;;;;;;5055237;28;20053;-75
2022/01/03 09:32:06;;;;;;;9.40;2.65;;;17.10;65.70;;;;;;5051552;28;20081;-76
2022/01/03 09:34:33;;;;;;;7.13;2.40;;;;;;;;;;5051039;28;20395;-76
2022/01/03 09:37:00;;;;;;;6.20;2.58;;;17.80;66.20;;;;;;5050962;28;20140;-76
2022/01/03 09:39:27;;;;;;;8.10;2.10;;;;;;;;;;5044021;28;20049;-76
2022/01/03 09:41:58;;;;;;;9.85;2.90;;;17.10;59.00;;;;;;5030779;28;20145;-75
2022/01/03 09:44:29;;;;;;;7.68;2.70;;;17.00;60.40;;;;;;5031218;28;20057;-76
2022/01/03 09:46:57;;;;;;;6.88;2.38;;;16.40;65.20;;;;;;5046633;28;20057;-76
2022/01/03 09:49:24;;;;;;;7.25;2.60;;;17.20;65.60;;;;;;5049088;28;20139;-76
2022/01/03 09:51:51;;;;;;;6.80;2.35;;;17.00;61.00;;;;;;5049544;28;20128;-75
2022/01/03 09:54:20;;;;;;;7.47;2.53;;;16.90;65.70;;;;;;5048398;28;20581;-75
2022/01/03 09:56:47;;;;;;;6.00;2.08;;;17.10;59.00;;;;;;5048657;28;20053;-74
2022/01/03 09:59:15;;;;;;;6.65;2.33;;;17.90;65.90;;;;;;5049680;28;20088;-76
2022/01/03 10:01:42;;;;;;;7.65;2.35;;;17.20;65.50;;;;;;5048508;28;20091;-76
2022/01/03 10:04:11;;;;;;;8.27;2.33;;;16.60;60.00;;;;;;5050305;28;20056;-76
2022/01/03 10:06:38;;;;;;;5.95;2.03;;;17.10;65.80;;;;;;5050257;28;20075;-76
2022/01/03 10:09:05;;;;;;;6.10;2.15;;;;;;;;;;5050063;28;20542;-74
2022/01/03 10:11:32;;;;;;;4.75;2.05;;;16.40;65.00;;;;;;5050332;28;20445;-75
2022/01/03 10:13:59;;;;;;;5.13;2.35;;;17.20;65.50;;;;;;5049790;28;20132;-75
2022/01/03 10:16:28;;;;;;;5.75;2.55;;;16.20;64.90;;;;;;5045833;28;20076;-75
2022/01/03 10:18:55;;;;;;;6.90;2.17;;;16.40;65.30;;;;;;5035021;28;20117;-75
2022/01/03 10:21:36;;;;;;;6.93;2.25;;;17.20;58.80;;;;;;5047531;28;20055;-74
2022/01/03 10:24:03;;;;;;;6.50;2.33;;;17.40;65.50;;;;;;5050631;28;20696;-76
2022/01/03 10:26:30;;;;;;;5.97;2.22;;;17.30;65.30;;;;;;5038763;28;20127;-73
2022/01/03 10:29:14;;;;;;;5.95;2.03;;;17.90;65.70;;;;;;5050320;28;20135;-73
2022/01/03 10:31:41;;;;;;;6.82;2.63;;;17.30;65.60;;;;;;5038238;28;20593;-73
2022/01/03 10:34:09;;;;;;;5.65;2.15;;;17.10;58.70;;;;;;5030477;28;20132;-75
2022/01/03 10:36:37;;;;;;;6.20;2.05;;;17.20;65.30;;;;;;5038424;28;20080;-73
2022/01/03 10:39:15;;;;;;;6.63;2.28;;;17.10;59.70;;;;;;5035321;28;20127;-76
2022/01/03 10:41:43;;;;;;;5.65;2.10;;;;;;;;;;5046037;28;20046;-75
2022/01/03 10:44:10;;;;;;;4.97;1.90;;;16.60;65.30;;;;;;5034092;28;20053;-75
2022/01/03 10:46:37;;;;;;;5.28;1.85;;;17.90;65.90;;;;;;5046860;28;20052;-75
2022/01/03 10:49:08;;;;;;;5.63;1.95;;;17.10;58.90;;;;;;5034525;28;20132;-75
2022/01/03 10:51:36;;;;;;;5.00;1.90;;;17.80;65.80;;;;;;5040624;28;20052;-75
2022/01/03 10:54:03;;;;;;;5.88;2.33;;;16.80;65.50;;;;;;5037599;28;20152;-76
2022/01/03 10:56:32;;;;;;;5.82;2.08;;;16.60;65.50;;;;;;5044389;28;20077;-75
2022/01/03 10:59:01;;;;;;;11.35;2.30;;;16.90;65.70;;;;;;5051608;28;20057;-76
2022/01/03 11:01:28;;;;;;;5.78;2.22;;;16.90;65.70;;;;;;5053999;28;20049;-76
2022/01/03 11:03:56;;;;;;;6.32;2.20;;;17.10;63.10;;;;;;5053719;28;20131;-76
2022/01/03 11:06:35;;;;;;;5.93;2.45;;;;;;;;;;5053406;28;20516;-75
2022/01/03 11:11:49;;;;;;;5.95;2.05;;;17.00;66.00;;;;;;5069696;28;20482;-76
2022/01/03 11:14:30;;;;;;;5.40;2.00;;;16.00;65.50;;;;;;5052147;28;20049;-76
2022/01/03 11:16:58;;;;;;;6.53;2.00;;;16.00;63.80;;;;;;5050593;28;20076;-76
2022/01/03 11:19:35;;;;;;;6.40;2.00;;;16.80;66.00;;;;;;5052411;28;20048;-76
2022/01/03 11:22:02;;;;;;;6.75;2.00;;;17.60;66.20;;;;;;5050915;28;20041;-76
2022/01/03 11:24:30;;;;;;;4.68;1.67;;;16.80;59.20;;;;;;5053430;28;20143;-76
2022/01/03 11:26:58;;;;;;;5.50;2.10;;;;;;;;;;5052781;28;20055;-76
2022/01/03 11:29:28;;;;;;;5.63;2.10;;;16.80;65.90;;;;;;5053111;28;20125;-76
2022/01/03 11:31:54;;;;;;;5.13;1.95;;;16.90;65.80;;;;;;5052903;28;20084;-76
2022/01/03 11:34:23;;;;;;;5.80;1.77;;;17.70;59.80;;;;;;5053019;28;20516;-76
2022/01/03 11:36:50;;;;;;;5.75;2.08;;;16.80;59.30;;;;;;5052771;28;20214;-76
2022/01/03 11:39:17;;;;;;;7.10;2.17;;;16.80;66.00;;;;;;5053622;28;20484;-76
2022/01/03 11:41:46;;;;;;;4.53;1.80;;;16.80;63.60;;;;;;5052099;28;20052;-76
2022/01/03 11:44:15;;;;;;;6.55;1.92;;;16.50;65.60;;;;;;5033837;28;20056;-76
2022/01/03 11:46:42;;;;;;;7.80;2.00;;;;;;;;;;5033149;28;20430;-76
2022/01/03 11:49:09;;;;;;;5.93;2.30;;;16.90;65.70;;;;;;5032991;28;20494;-76
2022/01/03 11:51:36;;;;;;;5.55;1.90;;;;;;;;;;5050610;28;20088;-72
2022/01/03 11:54:03;;;;;;;5.15;1.92;;;16.00;65.50;;;;;;5045972;28;20132;-74
2022/01/03 11:56:32;;;;;;;4.43;1.83;;;;;;;;;;5045254;28;20067;-74
2022/01/03 11:59:20;;;;;;;8.77;1.88;;;16.90;65.70;;;;;;5050828;28;20689;-74
2022/01/03 12:04:47;;;;;;;5.97;1.90;;;16.70;66.10;;;;;;4995287;28;20407;-76
2022/01/03 12:07:15;;;;;;;4.53;1.67;;;17.20;66.30;;;;;;4995613;28;20137;-76
2022/01/03 12:09:43;;;;;;;9.73;1.98;;;16.60;59.20;;;;;;5021928;28;20079;-76
2022/01/03 12:12:11;;;;;;;7.68;2.20;;;;;;;;;;5052218;28;20502;-77
2022/01/03 12:14:44;;;;;;;6.57;2.40;;;16.70;65.80;;;;;;5052593;28;20126;-76
2022/01/03 12:17:11;;;;;;;5.80;2.10;;;16.70;59.40;;;;;;5050174;28;20060;-77
2022/01/03 12:19:38;;;;;;;5.88;1.80;;;16.10;65.70;;;;;;5049190;28;20072;-75
2022/01/03 12:22:12;;;;;;;7.43;2.78;;;16.70;63.90;;;;;;5051832;28;20099;-76
2022/01/03 12:24:41;;;;;;;7.97;2.45;;;16.40;66.00;;;;;;5052308;28;20137;-76
2022/01/03 12:27:24;;;;;;;8.25;2.03;;;16.60;66.00;;;;;;5049330;28;20091;-76
2022/01/03 12:30:28;;;;;;;5.35;1.77;;;16.50;59.40;;;;;;5051639;28;20628;-75
2022/01/03 12:33:25;;;;;;;5.65;1.90;;;16.60;66.40;;;;;;5042243;28;20055;-76
2022/01/03 12:36:16;;;;;;;6.85;2.00;;;16.50;66.10;;;;;;5043143;28;20061;-76
2022/01/03 12:39:05;;;;;;;4.50;1.80;;;16.50;59.50;;;;;;5052202;28;20049;-76
2022/01/03 12:41:47;;;;;;;7.70;1.90;;;16.40;66.40;;;;;;5044766;28;20063;-77
2022/01/03 12:44:13;;;;;;;5.35;2.03;;;16.00;66.10;;;;;;5052538;28;20437;-75
2022/01/03 12:46:47;;;;;;;7.05;2.00;;;16.40;59.50;;;;;;5038777;28;20055;-75
2022/01/03 12:49:30;;;;;;;5.95;2.10;;;16.50;65.90;;;;;;5032130;28;20133;-72
2022/01/03 12:52:15;;;;;;;6.35;2.00;;;16.20;66.10;;;;;;5032075;28;20053;-73
2022/01/03 12:54:42;;;;;;;7.18;2.33;;;;;;;;;;5050502;28;20140;-74
2022/01/03 12:57:14;;;;;;;8.10;1.80;;;16.40;64.70;;;;;;5049318;28;20056;-74
2022/01/03 12:59:41;;;;;;;7.85;2.15;;;;;;;;;;5031645;28;20048;-74
2022/01/03 13:02:31;;;;;;;6.18;2.15;;;16.30;66.20;;;;;;5030135;28;20049;-74
2022/01/03 13:04:59;;;;;;;9.63;2.08;;;16.40;61.10;;;;;;5045002;28;20057;-75
2022/01/03 13:07:26;;;;;;;6.45;2.05;;;;;;;;;;5049871;28;20141;-74
2022/01/03 13:09:52;;;;;;;10.82;2.30;;;15.90;66.20;;;;;;5050553;28;20166;-74
2022/01/03 13:12:19;;;;;;;6.97;2.08;;;;;;;;;;5051138;28;20080;-74
2022/01/03 13:14:46;;;;;;;7.35;1.90;;;16.40;65.60;;;;;;5051416;28;20132;-74
2022/01/03 13:17:13;;;;;;;4.15;1.70;;;16.40;66.60;;;;;;5051447;28;20136;-74
2022/01/03 13:19:41;;;;;;;7.80;2.03;;;16.30;66.30;;;;;;5049822;28;20311;-74